Time;durP1;ratioP1;P1;durP2;ratioP2;P2;SDS_P1;SDS_P2;PMS_P1;PMS_P2;Temp;Humidity;BMP_temperature;BMP_pressure;BME280_temperature;BME280_humidity;BME280_pressure;Samples;Min_cycle;Max_cycle;Signal;HPM_P1;HPM_P2
2022/11/09 00:01:30;;;;;;;7.90;2.10;;;;;;;12.36;85.18;100403.25;5059239;28;20090;-78
2022/11/09 00:04:01;;;;;;;6.07;2.15;;;;;;;12.36;85.13;100404.06;5062000;28;20094;-78
2022/11/09 00:06:27;;;;;;;6.25;2.00;;;;;;;12.38;85.09;100412.53;5061874;28;20461;-78
2022/11/09 00:08:53;;;;;;;8.38;2.10;;;;;;;12.37;84.80;100423.09;5062328;28;20157;-78
2022/11/09 00:11:19;;;;;;;5.97;1.90;;;;;;;12.34;85.19;100415.59;5058664;28;20504;-78
2022/11/09 00:13:45;;;;;;;6.90;2.20;;;;;;;12.34;84.81;100410.41;5061000;28;20449;-77
2022/11/09 00:16:14;;;;;;;6.18;2.13;;;;;;;12.37;84.92;100420.50;5050172;28;20024;-78
2022/11/09 00:18:44;;;;;;;10.40;2.47;;;;;;;12.31;85.21;100413.28;5061340;28;20097;-78
2022/11/09 00:21:19;;;;;;;5.93;1.90;;;;;;;12.32;84.68;100412.31;5059580;28;20043;-78
2022/11/09 00:23:44;;;;;;;7.25;2.10;;;;;;;12.34;84.54;100407.78;5059889;28;20021;-78
2022/11/09 00:26:12;;;;;;;5.13;1.88;;;;;;;12.36;84.89;100416.25;5066672;28;20496;-78
2022/11/09 00:28:38;;;;;;;7.18;1.95;;;;;;;12.38;84.13;100422.94;5053804;28;20037;-77
2022/11/09 00:31:07;;;;;;;7.88;2.00;;;;;;;12.40;84.03;100425.41;5054804;28;21041;-77
2022/11/09 00:33:33;;;;;;;5.55;2.00;;;;;;;12.35;84.18;100422.44;5058625;28;20472;-78
2022/11/09 00:36:06;;;;;;;7.28;1.83;;;;;;;12.37;84.28;100420.50;5061914;28;20020;-79
2022/11/09 00:38:32;;;;;;;8.05;1.75;;;;;;;12.37;83.91;100426.50;5071116;28;20032;-78
2022/11/09 00:41:02;;;;;;;7.53;1.88;;;;;;;12.35;83.80;100419.81;5057337;28;20599;-78
2022/11/09 00:43:28;;;;;;;8.75;1.90;;;;;;;12.38;84.32;100422.13;5050552;28;20036;-78
2022/11/09 00:45:53;;;;;;;5.40;1.90;;;;;;;12.37;84.14;100410.09;5066485;28;20066;-78
2022/11/09 00:48:19;;;;;;;6.00;1.92;;;;;;;12.36;84.23;100414.47;5061362;28;20044;-78
2022/11/09 00:50:49;;;;;;;4.13;1.73;;;;;;;12.39;84.32;100424.59;5057018;28;20373;-79
2022/11/09 00:53:15;;;;;;;5.82;1.85;;;;;;;12.39;84.18;100411.59;5049150;28;20103;-78
2022/11/09 00:55:40;;;;;;;9.30;2.20;;;;;;;12.39;84.40;100421.19;5063452;28;20046;-78
2022/11/09 00:58:05;;;;;;;7.43;2.75;;;;;;;12.39;84.45;100418.56;5063685;28;20028;-78
2022/11/09 01:00:31;;;;;;;7.97;1.88;;;;;;;12.39;85.58;100428.97;5062976;28;20431;-78
2022/11/09 01:02:56;;;;;;;7.97;1.92;;;;;;;12.41;86.41;100442.66;5060390;28;20460;-78
2022/11/09 01:05:21;;;;;;;5.47;1.67;;;;;;;12.34;87.21;100415.59;5057706;28;20029;-78
2022/11/09 01:07:47;;;;;;;6.47;1.30;;;;;;;12.26;86.01;100407.69;5059495;28;20029;-77
2022/11/09 01:10:12;;;;;;;6.60;1.77;;;;;;;12.13;86.60;100403.66;5070486;28;20032;-77
2022/11/09 01:12:37;;;;;;;6.00;1.60;;;;;;;12.10;88.25;100414.38;5060204;28;20099;-78
2022/11/09 01:15:03;;;;;;;4.72;1.42;;;;;;;12.09;88.70;100410.09;5066364;28;20020;-77
2022/11/09 01:17:28;;;;;;;4.60;1.60;;;;;;;12.05;88.92;100416.56;5067297;28;20021;-78
2022/11/09 01:19:54;;;;;;;6.13;1.50;;;;;;;12.00;89.40;100413.59;5067255;28;20459;-78
2022/11/09 01:22:19;;;;;;;7.75;1.60;;;;;;;12.00;88.65;100411.00;5063564;28;20053;-77
2022/11/09 01:24:45;;;;;;;4.10;1.58;;;;;;;12.03;88.76;100410.69;5065880;28;20069;-78
2022/11/09 01:27:10;;;;;;;5.97;1.50;;;;;;;11.98;89.11;100415.50;5064451;28;20423;-78
2022/11/09 01:29:35;;;;;;;4.53;1.30;;;;;;;12.01;89.17;100415.22;5064021;28;20032;-78
2022/11/09 01:32:01;;;;;;;5.55;1.60;;;;;;;12.02;89.26;100422.06;5059061;28;20420;-78
2022/11/09 01:34:27;;;;;;;7.63;2.00;;;;;;;12.04;89.10;100427.91;5060056;28;20033;-78
2022/11/09 01:36:53;;;;;;;7.18;1.98;;;;;;;12.02;89.39;100427.25;5066863;28;20020;-78
2022/11/09 01:39:19;;;;;;;10.05;2.08;;;;;;;12.10;89.45;100429.97;5061501;28;20529;-78
2022/11/09 01:41:45;;;;;;;7.13;2.13;;;;;;;12.07;89.37;100430.25;5063770;28;20077;-77
2022/11/09 01:44:14;;;;;;;6.07;2.33;;;;;;;12.14;89.12;100417.47;5054264;28;20071;-78
2022/11/09 01:46:44;;;;;;;7.82;2.40;;;;;;;12.15;89.58;100432.09;5059984;28;20032;-78
2022/11/09 01:49:18;;;;;;;5.38;2.28;;;;;;;12.11;89.40;100421.19;5060007;28;20032;-77
2022/11/09 01:52:01;;;;;;;7.35;2.00;;;;;;;12.14;89.06;100420.88;5064494;28;20403;-78
2022/11/09 01:54:30;;;;;;;7.40;2.58;;;;;;;12.13;89.02;100424.47;5059766;28;20465;-78
2022/11/09 01:57:04;;;;;;;6.15;2.13;;;;;;;12.12;89.23;100425.44;5065920;28;20485;-78
2022/11/09 01:59:41;;;;;;;5.57;2.10;;;;;;;12.11;89.03;100431.59;5065779;28;20036;-78
2022/11/09 02:02:08;;;;;;;7.05;1.90;;;;;;;12.09;89.48;100433.50;5061909;28;20426;-78
2022/11/09 02:04:42;;;;;;;5.25;2.10;;;;;;;12.06;89.28;100428.59;5064702;28;20061;-78
2022/11/09 02:07:07;;;;;;;5.72;2.13;;;;;;;12.05;89.58;100424.38;5064216;28;20085;-78
2022/11/09 02:09:58;;;;;;;8.23;2.25;;;;;;;12.01;89.08;100410.03;5063561;28;20392;-78
2022/11/09 02:12:24;;;;;;;7.47;2.10;;;;;;;11.98;89.30;100415.50;5049928;28;20358;-78
2022/11/09 02:14:53;;;;;;;4.43;1.75;;;;;;;12.00;89.05;100418.78;5054729;28;20080;-79
2022/11/09 02:17:19;;;;;;;5.38;1.67;;;;;;;12.02;88.99;100437.66;5059517;28;20056;-78
2022/11/09 02:19:45;;;;;;;9.07;1.80;;;;;;;11.99;89.27;100417.16;5059391;28;20032;-78
2022/11/09 02:22:10;;;;;;;7.45;2.15;;;;;;;11.97;89.27;100419.06;5063786;28;20519;-77
2022/11/09 02:24:36;;;;;;;5.10;1.70;;;;;;;12.02;89.40;100416.84;5064729;28;20028;-78
2022/11/09 02:27:04;;;;;;;6.32;1.95;;;;;;;11.96;89.51;100417.44;5063906;28;20111;-78
2022/11/09 02:29:36;;;;;;;8.98;2.30;;;;;;;11.91;90.01;100410.06;5059792;28;20293;-78
2022/11/09 02:32:06;;;;;;;9.48;2.20;;;;;;;11.99;89.87;100431.94;5060266;28;20024;-79
2022/11/09 02:34:31;;;;;;;6.63;1.88;;;;;;;11.97;88.65;100424.25;5063818;28;20104;-77
2022/11/09 02:36:57;;;;;;;6.10;2.22;;;;;;;12.02;88.84;100436.81;5053546;28;20024;-78
2022/11/09 02:39:25;;;;;;;5.25;2.05;;;;;;;12.00;89.15;100429.19;5065077;28;20136;-78
2022/11/09 02:41:57;;;;;;;;;;;;;;;12.04;88.26;100430.50;5065380;28;20028;-78
2022/11/09 02:44:24;;;;;;;5.03;1.60;;;;;;;11.97;89.24;100429.47;5065934;28;20257;-78
2022/11/09 02:46:50;;;;;;;6.28;1.92;;;;;;;11.96;88.80;100430.41;5063133;28;20024;-78
2022/11/09 02:49:18;;;;;;;6.38;1.88;;;;;;;11.96;88.96;100427.81;5065916;28;20024;-78
2022/11/09 02:51:43;;;;;;;7.60;1.50;;;;;;;11.97;88.49;100434.66;5065094;28;20024;-77
2022/11/09 02:54:09;;;;;;;4.47;1.67;;;;;;;11.99;88.42;100429.34;5072227;28;20095;-78
2022/11/09 02:56:34;;;;;;;6.05;1.70;;;;;;;11.98;88.49;100425.88;5065241;28;20024;-78
2022/11/09 02:59:02;;;;;;;7.70;1.88;;;;;;;12.00;88.54;100436.16;5056725;28;20029;-78
2022/11/09 03:01:27;;;;;;;7.85;1.65;;;;;;;11.93;88.20;100433.31;5061663;28;20120;-78
2022/11/09 03:03:52;;;;;;;4.93;1.63;;;;;;;11.88;88.22;100425.13;5058627;28;20171;-78
2022/11/09 03:06:18;;;;;;;6.70;1.75;;;;;;;11.96;88.30;100438.22;5048764;28;20439;-78
2022/11/09 03:08:43;;;;;;;6.28;1.60;;;;;;;11.93;88.02;100430.72;5065135;28;20024;-77
2022/11/09 03:11:09;;;;;;;5.93;1.83;;;;;;;11.90;88.04;100429.22;5069061;28;20469;-77
2022/11/09 03:13:35;;;;;;;5.78;1.75;;;;;;;11.92;88.00;100431.66;5061152;28;20136;-78
2022/11/09 03:16:05;;;;;;;8.93;2.22;;;;;;;11.96;88.66;100438.22;5059793;28;20032;-78
2022/11/09 03:18:30;;;;;;;5.38;1.55;;;;;;;11.90;88.07;100449.19;5055397;28;20029;-78
2022/11/09 03:21:04;;;;;;;5.38;1.85;;;;;;;11.97;88.36;100450.25;5064178;28;20024;-78
2022/11/09 03:23:29;;;;;;;5.28;2.13;;;;;;;11.94;88.33;100458.34;5064199;28;20027;-78
2022/11/09 03:25:55;;;;;;;4.38;1.50;;;;;;;11.95;88.52;100453.00;5053192;28;20028;-77
2022/11/09 03:28:20;;;;;;;5.15;1.70;;;;;;;11.92;88.49;100447.25;5062392;28;20461;-78
2022/11/09 03:30:46;;;;;;;8.05;1.52;;;;;;;11.89;87.84;100450.97;5059698;28;21045;-78
2022/11/09 03:33:13;;;;;;;5.50;1.40;;;;;;;11.94;87.41;100455.75;5061530;28;20024;-77
2022/11/09 03:35:38;;;;;;;8.15;2.10;;;;;;;11.88;87.73;100456.31;5063058;28;20028;-78
2022/11/09 03:38:04;;;;;;;7.88;1.40;;;;;;;11.91;87.39;100461.22;5062099;28;20373;-78
2022/11/09 03:40:30;;;;;;;6.43;2.20;;;;;;;11.90;87.15;100457.00;5063657;28;20464;-77
2022/11/09 03:42:56;;;;;;;9.77;1.60;;;;;;;11.85;87.24;100454.00;5060938;28;20094;-79
2022/11/09 03:45:22;;;;;;;6.05;1.85;;;;;;;11.89;87.33;100468.34;5052971;28;20473;-77
2022/11/09 03:47:47;;;;;;;5.55;1.60;;;;;;;11.83;87.18;100468.91;5061846;28;20041;-78
2022/11/09 03:50:14;;;;;;;6.45;2.10;;;;;;;11.86;87.06;100473.81;5061887;28;20526;-78
2022/11/09 03:52:44;;;;;;;7.93;1.75;;;;;;;11.82;87.13;100493.28;5055511;28;20434;-77
2022/11/09 03:55:09;;;;;;;5.18;1.40;;;;;;;11.82;87.32;100488.06;5056395;28;20016;-78
2022/11/09 03:57:35;;;;;;;7.93;1.60;;;;;;;11.79;86.94;100493.50;5060310;28;20126;-77
2022/11/09 04:00:00;;;;;;;5.03;1.55;;;;;;;11.79;86.81;100503.91;5051476;28;20031;-78
2022/11/09 04:02:25;;;;;;;9.93;1.83;;;;;;;11.76;86.64;100509.41;5062153;28;20099;-82
2022/11/09 04:04:51;;;;;;;5.63;1.25;;;;;;;11.74;86.85;100506.09;5068703;28;20392;-77
2022/11/09 04:07:19;;;;;;;5.47;1.20;;;;;;;11.73;86.77;100509.66;5059551;28;20020;-78
2022/11/09 04:09:44;;;;;;;9.93;1.67;;;;;;;11.68;86.85;100513.50;5062311;28;20035;-77
2022/11/09 04:12:10;;;;;;;6.00;1.70;;;;;;;11.67;86.75;100517.06;5057071;28;20024;-78
2022/11/09 04:14:35;;;;;;;9.60;1.70;;;;;;;11.57;86.22;100499.84;5058615;28;20294;-78
2022/11/09 04:17:00;;;;;;;8.93;1.48;;;;;;;11.64;86.73;100512.16;5056551;28;20108;-78
2022/11/09 04:19:26;;;;;;;6.57;1.60;;;;;;;11.61;86.38;100512.41;5064405;28;20616;-78
2022/11/09 04:21:51;;;;;;;7.93;1.67;;;;;;;11.62;86.89;100511.44;5059598;28;20031;-78
2022/11/09 04:24:17;;;;;;;4.75;1.30;;;;;;;11.59;86.44;100503.13;5077190;28;20507;-78
2022/11/09 04:26:42;;;;;;;7.10;1.40;;;;;;;11.61;86.70;100511.59;5064677;28;20047;-77
2022/11/09 04:29:09;;;;;;;4.70;1.50;;;;;;;11.51;87.03;100511.59;5049710;28;20279;-78
2022/11/09 04:31:34;;;;;;;7.80;1.45;;;;;;;11.54;86.92;100516.53;5062783;28;20082;-78
2022/11/09 04:34:00;;;;;;;5.57;1.67;;;;;;;11.52;87.18;100513.22;5063403;28;20029;-77
2022/11/09 04:36:25;;;;;;;6.35;1.50;;;;;;;11.51;87.13;100511.59;5067939;28;20068;-77
2022/11/09 04:38:50;;;;;;;8.35;2.00;;;;;;;11.46;87.28;100508.59;5048272;28;20020;-78
2022/11/09 04:41:16;;;;;;;9.93;1.88;;;;;;;11.47;87.43;100525.84;5055764;28;20107;-77
2022/11/09 04:43:41;;;;;;;5.90;1.55;;;;;;;11.49;87.53;100534.31;5065273;28;20056;-78
2022/11/09 04:46:07;;;;;;;9.13;1.60;;;;;;;11.46;87.27;100529.38;5056160;28;20033;-77
2022/11/09 04:48:32;;;;;;;5.80;1.65;;;;;;;11.38;87.78;100516.28;5065268;28;20032;-77
2022/11/09 04:51:03;;;;;;;7.25;1.35;;;;;;;11.43;88.03;100529.66;5064254;28;20427;-77
2022/11/09 04:53:29;;;;;;;6.60;1.67;;;;;;;11.42;87.83;100525.44;5067299;28;20051;-78
2022/11/09 04:55:55;;;;;;;5.65;1.95;;;;;;;11.42;88.53;100534.03;5053430;28;20543;-78
2022/11/09 04:58:21;;;;;;;7.07;1.60;;;;;;;11.42;87.81;100535.81;5049515;28;20074;-78
2022/11/09 05:00:46;;;;;;;8.02;1.77;;;;;;;11.40;87.87;100541.13;5060871;28;20048;-78
2022/11/09 05:03:11;;;;;;;6.95;1.75;;;;;;;11.39;88.78;100538.69;5055761;28;20025;-78
2022/11/09 05:05:38;;;;;;;5.25;1.40;;;;;;;11.37;88.39;100532.81;5064205;28;20179;-78
2022/11/09 05:08:05;;;;;;;6.30;1.58;;;;;;;11.38;88.02;100531.84;5054253;28;20020;-77
2022/11/09 05:10:31;;;;;;;6.95;1.92;;;;;;;11.32;88.24;100532.41;5058412;28;20535;-77
2022/11/09 05:13:03;;;;;;;9.25;1.90;;;;;;;11.33;88.74;100537.44;5062149;28;20067;-77
2022/11/09 05:15:28;;;;;;;11.80;1.58;;;;;;;11.32;88.38;100532.41;5063258;28;20119;-78
2022/11/09 05:17:54;;;;;;;8.18;1.77;;;;;;;11.28;88.66;100526.66;5059635;28;20886;-78
2022/11/09 05:20:19;;;;;;;8.60;1.77;;;;;;;11.23;89.27;100528.03;5067817;28;20033;-77
2022/11/09 05:25:29;;;;;;;9.30;1.60;;;;;;;11.22;89.67;100531.56;5062196;28;20088;-78
2022/11/09 05:27:54;;;;;;;11.60;1.88;;;;;;;11.20;89.07;100523.13;5069908;28;20417;-77
2022/11/09 05:30:20;;;;;;;7.20;2.08;;;;;;;11.16;89.17;100522.56;5068102;28;20468;-77
2022/11/09 05:32:45;;;;;;;7.65;1.83;;;;;;;11.15;89.44;100526.94;5062358;28;20028;-77
2022/11/09 05:35:11;;;;;;;8.98;1.73;;;;;;;11.15;89.84;100532.13;5071968;28;20031;-77
2022/11/09 05:37:39;;;;;;;6.82;1.65;;;;;;;11.15;88.77;100521.75;5074925;28;20119;-77
2022/11/09 05:40:08;;;;;;;7.97;1.98;;;;;;;11.13;89.72;100522.84;5068716;28;20419;-77
2022/11/09 05:42:33;;;;;;;6.78;1.92;;;;;;;11.14;89.72;100525.28;5066224;28;20024;-77
2022/11/09 05:44:59;;;;;;;8.63;1.80;;;;;;;11.13;89.05;100528.03;5064467;28;20090;-77
2022/11/09 05:47:24;;;;;;;10.52;2.28;;;;;;;11.08;89.61;100520.66;5059157;28;20044;-77
2022/11/09 05:49:49;;;;;;;8.73;2.03;;;;;;;11.11;89.68;100535.13;5057583;28;20032;-77
2022/11/09 05:52:15;;;;;;;7.18;2.13;;;;;;;11.04;90.05;100523.66;5060941;28;20040;-78
2022/11/09 05:54:40;;;;;;;7.78;1.60;;;;;;;11.09;89.38;100527.47;5058718;28;20024;-77
2022/11/09 05:57:06;;;;;;;8.23;1.50;;;;;;;11.04;89.81;100524.47;5069449;28;20523;-77
2022/11/09 05:59:31;;;;;;;7.28;1.90;;;;;;;11.09;90.43;100532.66;5060530;28;20063;-76
2022/11/09 06:01:57;;;;;;;9.30;2.17;;;;;;;11.02;89.96;100525.56;5063390;28;20184;-79
2022/11/09 06:04:22;;;;;;;5.90;1.50;;;;;;;11.00;90.49;100528.28;5064439;28;20028;-77
2022/11/09 06:06:47;;;;;;;6.75;1.63;;;;;;;11.04;90.05;100524.47;5060282;28;20029;-77
2022/11/09 06:09:13;;;;;;;8.70;1.83;;;;;;;11.05;89.89;100531.28;5065192;28;20104;-76
2022/11/09 06:11:38;;;;;;;10.30;1.85;;;;;;;11.03;89.83;100543.59;5050914;28;20036;-78
2022/11/09 06:14:03;;;;;;;5.68;1.48;;;;;;;11.00;90.13;100536.06;5068817;28;20021;-78
2022/11/09 06:16:29;;;;;;;6.22;1.55;;;;;;;11.02;90.43;100541.13;5078714;28;20111;-79
2022/11/09 06:18:54;;;;;;;7.68;1.83;;;;;;;11.00;90.41;100533.47;5066707;28;20055;-78
2022/11/09 06:21:20;;;;;;;8.10;1.90;;;;;;;10.99;90.15;100536.19;5063115;28;20032;-78
2022/11/09 06:23:45;;;;;;;9.73;2.00;;;;;;;10.92;90.15;100530.72;5066997;28;20032;-78
2022/11/09 06:26:11;;;;;;;8.10;1.80;;;;;;;10.98;90.63;100540.56;5055493;28;20426;-78
2022/11/09 06:28:38;;;;;;;7.07;1.85;;;;;;;10.98;89.93;100539.75;5061156;28;20036;-77
2022/11/09 06:31:06;;;;;;;6.05;1.70;;;;;;;10.94;90.46;100544.38;5059813;28;20127;-79
2022/11/09 06:33:33;;;;;;;6.17;1.60;;;;;;;10.95;90.63;100546.03;5049330;28;20035;-77
2022/11/09 06:35:59;;;;;;;5.35;1.70;;;;;;;10.93;90.64;100558.31;5063555;28;20277;-77
2022/11/09 06:38:25;;;;;;;8.70;1.55;;;;;;;10.91;90.93;100552.44;5063254;28;20029;-78
2022/11/09 06:40:56;;;;;;;8.55;1.88;;;;;;;10.87;91.23;100554.47;5070792;28;20373;-79
2022/11/09 06:43:22;;;;;;;8.57;2.00;;;;;;;10.90;91.28;100563.78;5047607;28;20031;-79
2022/11/09 06:45:48;;;;;;;7.68;2.08;;;;;;;10.85;90.68;100560.78;5057152;28;20460;-78
2022/11/09 06:48:13;;;;;;;8.82;2.25;;;;;;;10.87;91.14;100566.63;5050287;28;20104;-77
2022/11/09 06:50:38;;;;;;;7.63;1.77;;;;;;;10.85;91.06;100565.97;5062900;28;20043;-78
2022/11/09 06:53:06;;;;;;;9.98;2.08;;;;;;;10.86;91.04;100568.41;5061856;28;20065;-77
2022/11/09 06:55:33;;;;;;;5.07;1.43;;;;;;;10.85;91.50;100573.75;5046623;28;20028;-77
2022/11/09 06:57:59;;;;;;;12.23;1.95;;;;;;;10.84;91.60;100570.34;5054063;28;20823;-77
2022/11/09 07:00:26;;;;;;;9.55;2.00;;;;;;;10.82;91.50;100568.81;5057753;28;20068;-78
2022/11/09 07:02:52;;;;;;;11.93;1.63;;;;;;;10.80;92.02;100570.72;5050221;28;20428;-78
2022/11/09 07:05:18;;;;;;;8.13;1.90;;;;;;;10.80;91.29;100578.50;5050746;28;20028;-78
2022/11/09 07:07:43;;;;;;;10.35;2.25;;;;;;;10.80;91.21;100575.91;5062150;28;20048;-78
2022/11/09 07:10:09;;;;;;;7.65;1.88;;;;;;;10.81;91.53;100582.75;5059583;28;20425;-78
2022/11/09 07:12:34;;;;;;;8.70;1.95;;;;;;;10.78;91.33;100576.06;5062039;28;20047;-77
2022/11/09 07:15:01;;;;;;;6.63;1.45;;;;;;;10.79;91.60;100579.47;5058778;28;20036;-78
2022/11/09 07:17:29;;;;;;;9.43;1.92;;;;;;;10.77;91.73;100560.59;5061623;28;20032;-78
2022/11/09 07:19:54;;;;;;;10.52;1.67;;;;;;;10.79;91.60;100574.28;5055922;28;20438;-78
2022/11/09 07:22:20;;;;;;;9.65;1.88;;;;;;;10.79;92.06;100582.06;5054919;28;20036;-77
2022/11/09 07:24:45;;;;;;;10.88;2.67;;;;;;;10.77;91.86;100583.94;5066388;28;20024;-77
2022/11/09 07:27:10;;;;;;;8.80;1.67;;;;;;;10.76;91.97;100584.91;5059980;28;20031;-78
2022/11/09 07:29:36;;;;;;;7.57;1.85;;;;;;;10.78;92.40;100595.97;5058296;28;20459;-77
2022/11/09 07:32:01;;;;;;;12.15;2.03;;;;;;;10.78;92.06;100590.78;5052055;28;20112;-77
2022/11/09 07:34:26;;;;;;;9.85;2.33;;;;;;;10.79;91.96;100595.03;5049931;28;20049;-77
2022/11/09 07:36:53;;;;;;;6.85;1.60;;;;;;;10.77;91.52;100594.31;5066794;28;20031;-77
2022/11/09 07:39:18;;;;;;;7.22;1.50;;;;;;;10.78;91.76;100593.38;5063345;28;20054;-77
2022/11/09 07:41:47;;;;;;;5.63;1.55;;;;;;;10.80;92.05;100588.88;5057004;28;20533;-77
2022/11/09 07:44:16;;;;;;;8.98;1.63;;;;;;;10.80;92.00;100601.84;5061714;28;20523;-77
2022/11/09 07:46:42;;;;;;;4.45;1.42;;;;;;;10.79;91.74;100592.44;5058155;28;20033;-78
2022/11/09 07:49:08;;;;;;;9.35;2.17;;;;;;;10.83;92.32;100593.78;5065165;28;20060;-77
2022/11/09 07:51:33;;;;;;;9.48;1.90;;;;;;;10.84;92.02;100600.66;5062228;28;20039;-77
2022/11/09 07:53:59;;;;;;;7.15;1.90;;;;;;;10.82;92.24;100602.53;5064189;28;20472;-77
2022/11/09 07:56:24;;;;;;;8.48;2.22;;;;;;;10.85;92.53;100597.09;5048138;28;20028;-77
2022/11/09 07:58:50;;;;;;;6.60;2.03;;;;;;;10.86;91.73;100603.91;5063257;28;20483;-77
2022/11/09 08:01:15;;;;;;;7.65;2.10;;;;;;;10.85;92.18;100597.09;5071045;28;20461;-77
2022/11/09 08:03:40;;;;;;;7.30;1.80;;;;;;;10.91;92.25;100606.94;5049554;28;20568;-77
2022/11/09 08:06:06;;;;;;;7.78;2.00;;;;;;;10.92;92.03;100608.59;5064617;28;20114;-78
2022/11/09 08:08:31;;;;;;;12.35;2.22;;;;;;;10.88;91.80;100602.00;5061155;28;20025;-77
2022/11/09 08:10:57;;;;;;;9.45;1.83;;;;;;;10.89;91.75;100612.25;5064535;28;20039;-77
2022/11/09 08:13:22;;;;;;;10.10;2.58;;;;;;;10.94;91.98;100622.22;5050652;28;20033;-77
2022/11/09 08:15:48;;;;;;;6.35;1.80;;;;;;;10.93;92.76;100610.22;5045954;28;20202;-77
2022/11/09 08:18:17;;;;;;;6.28;1.60;;;;;;;10.99;91.75;100625.25;5057591;28;20032;-78
2022/11/09 08:20:43;;;;;;;7.35;1.77;;;;;;;10.96;92.15;100620.34;5058534;28;20394;-78
2022/11/09 08:23:17;;;;;;;8.50;1.85;;;;;;;11.02;91.76;100619.00;5050379;28;20131;-77
2022/11/09 08:25:43;;;;;;;9.05;1.85;;;;;;;11.04;91.53;100625.69;5053259;28;20052;-78
2022/11/09 08:28:08;;;;;;;7.90;2.00;;;;;;;11.07;91.03;100633.22;5047672;28;20493;-76
2022/11/09 08:30:34;;;;;;;7.88;1.77;;;;;;;11.08;91.48;100634.03;5051479;28;20378;-78
2022/11/09 08:33:01;;;;;;;10.88;2.35;;;;;;;11.13;91.44;100640.47;5051674;28;20029;-77
2022/11/09 08:35:27;;;;;;;11.18;2.20;;;;;;;11.19;91.90;100646.09;5062001;28;20671;-78
2022/11/09 08:37:53;;;;;;;8.80;1.88;;;;;;;11.22;91.36;100645.81;5070370;28;20032;-78
2022/11/09 08:40:23;;;;;;;6.07;1.90;;;;;;;11.26;91.78;100653.19;5056080;28;20365;-78
2022/11/09 08:42:48;;;;;;;5.05;1.45;;;;;;;11.28;90.60;100640.06;5054951;28;20036;-79
2022/11/09 08:45:14;;;;;;;9.60;1.90;;;;;;;11.33;90.86;100648.28;5052280;28;20020;-79
2022/11/09 08:47:40;;;;;;;10.00;2.03;;;;;;;11.39;89.72;100653.75;5064128;28;20072;-80
2022/11/09 08:50:08;;;;;;;8.15;1.88;;;;;;;11.45;90.17;100647.19;5067757;28;20020;-79
2022/11/09 08:52:34;;;;;;;9.00;1.98;;;;;;;11.47;89.23;100653.09;5061180;28;20462;-78
2022/11/09 08:55:00;;;;;;;8.75;1.88;;;;;;;11.50;89.43;100650.22;5055965;28;20036;-80
2022/11/09 08:57:26;;;;;;;11.05;2.08;;;;;;;11.54;89.39;100646.41;5062936;28;20036;-79
2022/11/09 08:59:52;;;;;;;8.75;2.03;;;;;;;11.54;89.16;100651.59;5067105;28;20021;-79
2022/11/09 09:02:17;;;;;;;9.35;2.00;;;;;;;11.59;88.85;100659.81;5056556;28;20048;-78
2022/11/09 09:04:43;;;;;;;7.78;1.83;;;;;;;11.59;88.50;100654.59;5055555;28;20013;-78
2022/11/09 09:07:08;;;;;;;6.05;1.65;;;;;;;11.57;89.20;100640.91;5054849;28;20485;-78
2022/11/09 09:09:34;;;;;;;8.80;2.78;;;;;;;11.62;88.54;100654.31;5059111;28;20028;-79
2022/11/09 09:11:59;;;;;;;8.85;2.13;;;;;;;11.65;88.85;100659.25;5052025;28;20070;-79
2022/11/09 09:14:25;;;;;;;5.70;1.85;;;;;;;11.65;88.56;100648.88;5051876;28;20037;-78
2022/11/09 09:16:51;;;;;;;10.98;2.08;;;;;;;11.68;89.05;100653.78;5068730;28;20081;-78
2022/11/09 09:19:16;;;;;;;9.55;1.92;;;;;;;11.67;88.54;100652.13;5059027;28;20534;-78
2022/11/09 09:21:42;;;;;;;8.00;2.00;;;;;;;11.67;88.28;100652.13;5073311;28;20036;-79
2022/11/09 09:24:08;;;;;;;7.47;1.88;;;;;;;11.76;88.89;100660.09;5056316;28;20469;-79
2022/11/09 09:26:33;;;;;;;9.38;1.88;;;;;;;11.76;88.65;100647.09;5058076;28;20080;-78
2022/11/09 09:28:59;;;;;;;8.70;2.25;;;;;;;11.79;88.29;100654.59;5054870;28;20373;-78
2022/11/09 09:31:24;;;;;;;8.68;1.70;;;;;;;11.81;87.96;100652.69;5052012;28;20070;-79
2022/11/09 09:33:50;;;;;;;7.55;1.83;;;;;;;11.83;87.72;100656.00;5058546;28;20029;-78
2022/11/09 09:36:18;;;;;;;4.90;1.70;;;;;;;11.80;87.99;100658.84;5060304;28;20023;-79
2022/11/09 09:38:44;;;;;;;9.00;2.50;;;;;;;11.84;87.91;100660.25;5067539;28;20108;-78
2022/11/09 09:41:22;;;;;;;6.25;1.40;;;;;;;11.87;87.86;100657.34;5068560;28;20132;-79
2022/11/09 09:43:51;;;;;;;10.30;2.00;;;;;;;11.90;87.61;100662.28;5054975;28;20024;-79
2022/11/09 09:46:45;;;;;;;7.38;1.85;;;;;;;11.92;87.41;100665.56;5065355;28;20024;-78
2022/11/09 09:49:27;;;;;;;9.07;1.70;;;;;;;11.92;87.13;100665.56;5066331;28;20043;-79
2022/11/09 09:51:58;;;;;;;6.93;2.00;;;;;;;12.01;86.65;100672.53;5055659;28;20036;-78
2022/11/09 09:54:29;;;;;;;9.93;1.75;;;;;;;12.07;86.56;100678.97;5059456;28;20021;-78
2022/11/09 09:56:58;;;;;;;7.70;1.58;;;;;;;12.08;86.60;100671.03;5062182;28;20036;-79
2022/11/09 09:59:41;;;;;;;11.30;1.92;;;;;;;12.14;86.21;100680.88;5058399;28;20033;-79
2022/11/09 10:02:23;;;;;;;12.70;2.30;;;;;;;12.14;85.85;100680.06;5055664;28;20077;-79
2022/11/09 10:04:50;;;;;;;10.05;1.70;;;;;;;12.19;85.24;100689.06;5053222;28;20032;-79
2022/11/09 10:07:40;;;;;;;9.23;1.70;;;;;;;12.22;85.07;100694.00;5072508;28;20032;-79
2022/11/09 10:10:36;;;;;;;9.45;1.80;;;;;;;12.20;85.13;100701.13;5065808;28;20130;-78
2022/11/09 10:13:22;;;;;;;9.38;2.97;;;;;;;12.21;85.66;100689.78;5049923;28;20594;-79
2022/11/09 10:16:00;;;;;;;7.43;1.75;;;;;;;12.23;84.84;100694.84;5056663;28;20082;-79
2022/11/09 10:18:48;;;;;;;5.05;1.73;;;;;;;12.28;84.29;100692.63;5060188;28;20035;-79
2022/11/09 10:21:22;;;;;;;5.90;1.55;;;;;;;12.31;83.88;100696.72;5067219;28;20035;-80
2022/11/09 10:24:18;;;;;;;7.03;1.83;;;;;;;12.38;84.62;100703.81;5073970;28;20043;-78
2022/11/09 10:26:50;;;;;;;7.03;1.73;;;;;;;12.45;84.04;100709.31;5064673;28;20075;-78
2022/11/09 10:29:24;;;;;;;8.07;1.77;;;;;;;12.47;83.49;100702.19;5064805;28;20077;-79
2022/11/09 10:31:57;;;;;;;11.82;1.92;;;;;;;12.51;83.76;100706.16;5062748;28;20036;-78
2022/11/09 10:34:28;;;;;;;9.75;2.15;;;;;;;12.54;83.54;100708.44;5062566;28;20029;-79
2022/11/09 10:37:06;;;;;;;7.40;1.95;;;;;;;12.56;82.95;100706.56;5066331;28;20499;-78
2022/11/09 10:39:41;;;;;;;8.95;2.08;;;;;;;12.55;83.20;100717.88;5058249;28;20040;-78
2022/11/09 10:42:09;;;;;;;10.43;2.15;;;;;;;12.51;83.51;100703.53;5066015;28;20023;-79
2022/11/09 10:44:35;;;;;;;;;;;;;;;12.59;84.15;100711.47;5080501;28;20032;-79
2022/11/09 10:47:01;;;;;;;10.70;1.93;;;;;;;12.56;83.17;100722.16;5058266;28;19958;-78
2022/11/09 10:49:27;;;;;;;12.30;2.00;;;;;;;12.53;83.43;100727.63;5060857;28;20649;-78
2022/11/09 10:51:52;;;;;;;8.27;1.70;;;;;;;12.54;83.89;100728.44;5065188;28;20050;-78
2022/11/09 10:54:17;;;;;;;10.43;1.92;;;;;;;12.55;83.92;100727.47;5060443;28;20103;-79
2022/11/09 10:56:46;;;;;;;6.90;1.63;;;;;;;12.53;82.61;100722.44;5065760;28;20449;-79
2022/11/09 10:59:44;;;;;;;9.32;1.70;;;;;;;12.59;82.85;100726.25;5054980;28;20032;-78
2022/11/09 11:02:28;;;;;;;4.15;1.52;;;;;;;12.57;83.16;100729.00;5059647;28;20126;-79
2022/11/09 11:05:05;;;;;;;5.90;1.60;;;;;;;12.56;81.87;100732.56;5066652;28;20060;-79
2022/11/09 11:07:33;;;;;;;10.10;2.00;;;;;;;12.50;81.54;100717.50;5062280;28;20055;-79
2022/11/09 11:10:22;;;;;;;9.55;1.63;;;;;;;12.45;82.15;100704.94;5058728;28;20036;-80
2022/11/09 11:13:00;;;;;;;6.25;1.40;;;;;;;12.47;81.53;100718.59;5054056;28;20381;-78
2022/11/09 11:15:36;;;;;;;7.00;1.75;;;;;;;12.47;80.27;100712.59;5053490;28;20366;-79
2022/11/09 11:18:11;;;;;;;9.38;1.95;;;;;;;12.52;80.77;100720.78;5062504;28;20091;-81
2022/11/09 11:20:37;;;;;;;8.30;1.70;;;;;;;12.58;80.78;100719.41;5064387;28;20495;-80
2022/11/09 11:23:13;;;;;;;8.00;1.92;;;;;;;12.61;80.27;100719.94;5055800;28;20486;-79
2022/11/09 11:26:11;;;;;;;6.82;2.10;;;;;;;12.64;80.76;100724.03;5048960;28;20047;-79
2022/11/09 11:28:45;;;;;;;5.97;1.67;;;;;;;12.67;80.00;100714.19;5055036;28;20032;-79
2022/11/09 11:31:18;;;;;;;6.85;1.60;;;;;;;12.79;79.11;100711.38;5067073;28;20036;-78